Archival Weather

Bob Hope

Burbank, California (KBUR)

Report from: Monday, January 29, 2024 5:53 AM PST
Current time: Friday, June 14, 2024 4:59 AM PDT

Current weather – Weather history – Daily summaries
Weather forecast

Temperature10.0°C (50.0°F)
Dew point3.9°C (39.0°F)
Winds Calm
Visibility10 mi. (16.1 km)
Clouds Sky clear
Altimeter30.13 in.Hg (1020 mB)
Relative humidity66 %
Density altitude-687 ft. (-209 m)
Sea-level pressure101.9 kPa (1019 mB, 30.10 in.Hg)
Remarks Automated weather observing station with precipitation discriminator
Flight conditions Visual Meteorological Conditions
Raw dataKBUR 291353Z 00000KT 10SM CLR 10/04 A3013 RMK AO2 SLP194 T01000039
An error has occurred. This application may no longer respond until reloaded. Reload 🗙